Time;durP1;ratioP1;P1;durP2;ratioP2;P2;SDS_P1;SDS_P2;PMS_P1;PMS_P2;Temp;Humidity;BMP_temperature;BMP_pressure;BME280_temperature;BME280_humidity;BME280_pressure;Samples;Min_cycle;Max_cycle;Signal;HPM_P1;HPM_P2
2023/09/03 00:00:17;;;;;;;17.65;15.25;;;;;;;;;;5027387;28;20277;-73
2023/09/03 00:02:42;;;;;;;20.13;15.13;;;;;;;;;;5022093;28;20634;-75
2023/09/03 00:05:08;;;;;;;18.48;15.38;;;;;;;;;;5027052;28;20280;-73
2023/09/03 00:07:33;;;;;;;16.92;15.00;;;;;;;;;;5028696;28;20194;-73
2023/09/03 00:09:58;;;;;;;17.38;15.45;;;;;;;;;;5029965;28;20197;-74
2023/09/03 00:12:24;;;;;;;19.50;13.80;;;;;;;;;;5028286;28;20696;-73
2023/09/03 00:14:49;;;;;;;20.50;15.20;;;;;;;;;;5022320;28;20221;-74
2023/09/03 00:17:14;;;;;;;18.75;14.88;;;;;;;;;;5025440;28;20681;-72
2023/09/03 00:19:43;;;;;;;20.17;15.55;;;;;;;;;;5029269;28;20182;-72
2023/09/03 00:22:08;;;;;;;18.73;14.07;;;;;;;;;;5016310;28;20186;-73
2023/09/03 00:24:34;;;;;;;19.65;15.15;;;;;;;;;;5030434;28;20233;-73
2023/09/03 00:26:59;;;;;;;18.75;15.05;;;;;;;;;;5020593;28;20201;-74
2023/09/03 00:29:25;;;;;;;19.45;15.13;;;;;;;;;;5025417;28;20228;-74
2023/09/03 00:31:50;;;;;;;23.98;16.75;;;;;;;;;;5028845;28;20558;-73
2023/09/03 00:34:15;;;;;;;21.70;16.23;;;;;;;;;;5029132;28;20261;-73
2023/09/03 00:36:41;;;;;;;23.73;16.63;;;;;;;;;;5017050;28;20194;-73
2023/09/03 00:39:06;;;;;;;23.45;15.90;;;;;;;;;;5027458;28;20225;-73
2023/09/03 00:41:32;;;;;;;22.90;16.05;;;;;;;;;;5028184;28;20575;-73
2023/09/03 00:43:58;;;;;;;22.98;15.85;;;;;;;;;;5029442;28;20217;-74
2023/09/03 00:46:23;;;;;;;21.85;14.85;;;;;;;;;;5034303;28;20582;-73
2023/09/03 00:48:49;;;;;;;21.48;14.70;;;;;;;;;;5028091;28;20218;-73
2023/09/03 00:51:17;;;;;;;19.70;14.70;;;;;;;;;;5012207;28;20552;-73
2023/09/03 00:53:47;;;;;;;22.95;13.27;;;;;;;;;;5012105;28;20281;-73
2023/09/03 00:56:13;;;;;;;18.63;13.55;;;;;;;;;;5017806;28;20194;-73
2023/09/03 00:58:39;;;;;;;19.77;14.10;;;;;;;;;;5025502;28;20261;-73
2023/09/03 01:01:05;;;;;;;20.58;14.23;;;;;;;;;;5024628;28;20233;-73
2023/09/03 01:03:30;;;;;;;19.83;13.65;;;;;;;;;;5028748;28;20186;-74
2023/09/03 01:05:56;;;;;;;19.25;14.07;;;;;;;;;;5024911;28;20190;-73
2023/09/03 01:08:22;;;;;;;22.48;15.60;;;;;;;;;;5030331;28;20687;-73
2023/09/03 01:11:02;;;;;;;20.58;14.32;;;;;;;;;;5025312;28;20187;-73
2023/09/03 01:13:38;;;;;;;21.77;13.90;;;;;;;;;;5029326;28;20285;-73
2023/09/03 01:16:22;;;;;;;20.10;14.57;;;;;;;;;;5027575;28;20185;-73
2023/09/03 01:18:48;;;;;;;21.73;14.10;;;;;;;;;;5011178;28;20213;-73
2023/09/03 01:21:26;;;;;;;23.08;15.25;;;;;;;;;;5017612;28;20221;-73
2023/09/03 01:24:10;;;;;;;22.92;14.75;;;;;;;;;;5021296;28;20201;-73
2023/09/03 01:26:56;;;;;;;24.50;15.00;;;;;;;;;;5018175;28;20197;-72
2023/09/03 01:29:23;;;;;;;19.67;14.35;;;;;;;;;;5020958;28;20268;-73
2023/09/03 01:31:49;;;;;;;26.35;15.68;;;;;;;;;;5029098;28;20475;-72
2023/09/03 01:34:16;;;;;;;21.38;14.02;;;;;;;;;;5029309;28;20272;-72
2023/09/03 01:36:42;;;;;;;20.38;14.75;;;;;;;;;;5020747;28;20182;-72
2023/09/03 01:39:07;;;;;;;27.17;15.68;;;;;;;;;;5029493;28;20181;-72
2023/09/03 01:41:34;;;;;;;22.60;16.15;;;;;;;;;;4999302;28;20282;-72
2023/09/03 01:44:00;;;;;;;22.98;15.75;;;;;;;;;;5028806;28;20186;-73
2023/09/03 01:46:41;;;;;;;21.42;15.93;;;;;;;;;;5025816;28;20690;-73
2023/09/03 01:49:42;;;;;;;22.85;14.98;;;;;;;;;;5019998;28;20219;-72
2023/09/03 01:52:17;;;;;;;22.88;16.25;;;;;;;;;;5017764;28;20209;-73
2023/09/03 01:54:48;;;;;;;24.08;16.38;;;;;;;;;;5020744;28;20512;-72
2023/09/03 01:57:23;;;;;;;25.75;17.38;;;;;;;;;;5018872;28;20190;-73
2023/09/03 01:59:52;;;;;;;26.15;16.60;;;;;;;;;;5028897;28;20211;-72
2023/09/03 02:02:19;;;;;;;26.42;18.35;;;;;;;;;;5016634;28;20614;-72
2023/09/03 02:04:45;;;;;;;27.05;18.33;;;;;;;;;;5028447;28;20232;-72
2023/09/03 02:07:10;;;;;;;27.17;18.23;;;;;;;;;;5006277;28;20222;-72
2023/09/03 02:09:36;;;;;;;27.90;17.17;;;;;;;;;;5019197;28;20272;-72
2023/09/03 02:12:02;;;;;;;23.40;16.90;;;;;;;;;;5014131;28;20190;-72
2023/09/03 02:14:27;;;;;;;21.05;15.40;;;;;;;;;;5028839;28;20642;-72
2023/09/03 02:16:53;;;;;;;19.85;14.75;;;;;;;;;;5028728;28;20186;-72
2023/09/03 02:19:18;;;;;;;24.13;16.00;;;;;;;;;;5026592;28;20190;-72
2023/09/03 02:21:44;;;;;;;26.13;16.20;;;;;;;;;;5023722;28;20220;-72
2023/09/03 02:24:09;;;;;;;25.13;15.95;;;;;;;;;;5010114;28;20273;-72
2023/09/03 02:26:45;;;;;;;23.95;15.32;;;;;;;;;;5026720;28;20642;-72
2023/09/03 02:29:11;;;;;;;24.80;16.38;;;;;;;;;;5021746;28;20623;-72
2023/09/03 02:31:37;;;;;;;24.25;17.10;;;;;;;;;;5023166;28;20194;-72
2023/09/03 02:34:04;;;;;;;23.58;15.65;;;;;;;;;;5000400;28;21358;-72
2023/09/03 02:36:30;;;;;;;20.63;15.52;;;;;;;;;;5019630;28;20201;-72
2023/09/03 02:39:04;;;;;;;20.98;14.85;;;;;;;;;;5031423;28;20190;-72
2023/09/03 02:41:30;;;;;;;20.63;14.77;;;;;;;;;;5006786;28;20210;-73
2023/09/03 02:44:01;;;;;;;19.63;15.32;;;;;;;;;;5031638;28;20240;-72
2023/09/03 02:46:27;;;;;;;23.98;17.17;;;;;;;;;;5023273;28;20230;-72
2023/09/03 02:48:52;;;;;;;23.80;16.60;;;;;;;;;;5031030;28;20206;-72
2023/09/03 02:51:17;;;;;;;23.60;15.75;;;;;;;;;;5025805;28;20221;-72
2023/09/03 02:53:45;;;;;;;26.27;17.17;;;;;;;;;;5030196;28;20528;-72
2023/09/03 02:56:14;;;;;;;27.88;16.38;;;;;;;;;;5031149;28;20221;-72
2023/09/03 02:58:40;;;;;;;24.35;15.75;;;;;;;;;;5031721;28;20244;-72
2023/09/03 03:01:07;;;;;;;25.70;15.80;;;;;;;;;;5028002;28;20549;-72
2023/09/03 03:03:33;;;;;;;25.17;16.27;;;;;;;;;;5026909;28;20236;-72
2023/09/03 03:05:58;;;;;;;23.33;15.48;;;;;;;;;;5032354;28;20190;-72
2023/09/03 03:08:23;;;;;;;24.48;16.30;;;;;;;;;;5031274;28;20226;-72
2023/09/03 03:10:50;;;;;;;24.23;17.05;;;;;;;;;;5027960;28;20217;-73
2023/09/03 03:13:15;;;;;;;23.63;16.25;;;;;;;;;;5023721;28;20182;-73
2023/09/03 03:15:41;;;;;;;26.23;17.05;;;;;;;;;;5025360;28;20194;-73
2023/09/03 03:18:06;;;;;;;21.77;15.18;;;;;;;;;;5024084;28;20205;-73
2023/09/03 03:20:31;;;;;;;24.52;15.95;;;;;;;;;;5027060;28;20190;-73
2023/09/03 03:22:57;;;;;;;24.02;16.65;;;;;;;;;;5019870;28;20269;-72
2023/09/03 03:25:22;;;;;;;24.98;16.90;;;;;;;;;;5029880;28;20198;-73
2023/09/03 03:27:48;;;;;;;23.73;15.63;;;;;;;;;;5025190;28;20669;-72
2023/09/03 03:30:13;;;;;;;22.85;16.00;;;;;;;;;;5030090;28;20229;-72
2023/09/03 03:32:38;;;;;;;25.20;16.63;;;;;;;;;;5029893;28;20189;-72
2023/09/03 03:35:05;;;;;;;23.38;16.02;;;;;;;;;;5032064;28;20269;-72
2023/09/03 03:37:31;;;;;;;25.75;15.85;;;;;;;;;;5030608;28;20251;-72
2023/09/03 03:39:56;;;;;;;25.95;16.88;;;;;;;;;;5030211;28;20185;-72
2023/09/03 03:42:21;;;;;;;25.05;16.27;;;;;;;;;;5028911;28;20189;-73
2023/09/03 03:44:47;;;;;;;24.83;16.13;;;;;;;;;;5030642;28;20748;-71
2023/09/03 03:47:12;;;;;;;27.63;16.88;;;;;;;;;;5025691;28;20251;-72
2023/09/03 03:49:37;;;;;;;26.77;17.73;;;;;;;;;;5031062;28;20715;-73
2023/09/03 03:52:03;;;;;;;26.33;16.90;;;;;;;;;;5025699;28;20195;-72
2023/09/03 03:54:30;;;;;;;28.02;17.58;;;;;;;;;;5025864;28;20217;-72
2023/09/03 03:56:56;;;;;;;26.80;16.80;;;;;;;;;;5016659;28;20198;-72
2023/09/03 03:59:21;;;;;;;26.50;16.40;;;;;;;;;;5031144;28;20200;-73
2023/09/03 04:01:46;;;;;;;24.83;16.33;;;;;;;;;;5027573;28;20261;-73
2023/09/03 04:04:12;;;;;;;26.35;16.23;;;;;;;;;;5026615;28;20190;-73
2023/09/03 04:06:37;;;;;;;28.17;17.17;;;;;;;;;;5030594;28;20203;-71
2023/09/03 04:09:02;;;;;;;27.88;16.58;;;;;;;;;;5030299;28;20291;-72
2023/09/03 04:11:28;;;;;;;29.02;17.23;;;;;;;;;;5027837;28;20292;-73
2023/09/03 04:13:53;;;;;;;22.13;15.45;;;;;;;;;;5029159;28;20626;-72
2023/09/03 04:16:22;;;;;;;21.63;14.70;;;;;;;;;;5022096;28;20190;-72
2023/09/03 04:18:49;;;;;;;24.90;15.80;;;;;;;;;;5030228;28;20252;-72
2023/09/03 04:21:14;;;;;;;27.48;15.65;;;;;;;;;;5022687;28;20198;-71
2023/09/03 04:23:40;;;;;;;25.27;15.98;;;;;;;;;;5030388;28;20190;-72
2023/09/03 04:26:05;;;;;;;27.17;16.17;;;;;;;;;;5030803;28;20182;-72
2023/09/03 04:28:31;;;;;;;23.35;15.75;;;;;;;;;;5023183;28;20260;-72
2023/09/03 04:30:59;;;;;;;26.75;14.68;;;;;;;;;;5034915;28;20218;-72
2023/09/03 04:33:25;;;;;;;23.85;15.85;;;;;;;;;;5027579;28;20186;-72
2023/09/03 04:35:59;;;;;;;25.08;14.65;;;;;;;;;;5023461;28;20636;-72
2023/09/03 04:38:25;;;;;;;23.55;15.93;;;;;;;;;;5016472;28;20186;-73
2023/09/03 04:40:51;;;;;;;23.17;15.07;;;;;;;;;;5015055;28;20669;-71
2023/09/03 04:43:17;;;;;;;23.85;15.73;;;;;;;;;;5025811;28;20193;-72
2023/09/03 04:45:51;;;;;;;19.95;14.25;;;;;;;;;;5019537;28;20234;-72
2023/09/03 04:48:18;;;;;;;24.83;15.23;;;;;;;;;;5021183;28;20214;-72
2023/09/03 04:50:44;;;;;;;21.55;14.77;;;;;;;;;;5030345;28;20558;-73
2023/09/03 04:53:13;;;;;;;23.40;14.65;;;;;;;;;;5028050;28;20202;-72
2023/09/03 04:55:38;;;;;;;23.27;14.77;;;;;;;;;;5016205;28;20240;-72
2023/09/03 04:58:04;;;;;;;20.08;14.07;;;;;;;;;;5022481;28;20213;-72
2023/09/03 05:00:30;;;;;;;21.92;15.27;;;;;;;;;;5027821;28;20198;-73
2023/09/03 05:02:56;;;;;;;23.15;16.10;;;;;;;;;;5022842;28;20187;-72
2023/09/03 05:05:21;;;;;;;22.27;15.13;;;;;;;;;;5024913;28;20249;-72
2023/09/03 05:07:47;;;;;;;23.30;15.90;;;;;;;;;;5026562;28;20672;-73
2023/09/03 05:10:13;;;;;;;24.98;15.43;;;;;;;;;;5024732;28;20546;-72
2023/09/03 05:12:40;;;;;;;24.27;15.45;;;;;;;;;;5041566;28;20222;-72
2023/09/03 05:15:08;;;;;;;22.27;14.88;;;;;;;;;;5020837;28;20185;-72
2023/09/03 05:17:33;;;;;;;22.83;15.43;;;;;;;;;;5022792;28;20759;-73
2023/09/03 05:19:58;;;;;;;24.73;16.23;;;;;;;;;;5020893;28;20186;-73
2023/09/03 05:22:24;;;;;;;23.85;15.30;;;;;;;;;;5026624;28;20519;-73
2023/09/03 05:24:49;;;;;;;20.55;14.63;;;;;;;;;;5031330;28;20194;-73
2023/09/03 05:27:14;;;;;;;22.50;15.10;;;;;;;;;;5028485;28;20190;-72
2023/09/03 05:29:40;;;;;;;23.63;16.08;;;;;;;;;;5026752;28;20685;-72
2023/09/03 05:32:05;;;;;;;23.55;15.18;;;;;;;;;;5026488;28;20237;-72
2023/09/03 05:34:31;;;;;;;25.83;16.17;;;;;;;;;;5025563;28;20710;-72
2023/09/03 05:36:56;;;;;;;20.40;14.25;;;;;;;;;;5025374;28;20618;-72
2023/09/03 05:39:22;;;;;;;22.73;15.95;;;;;;;;;;5030110;28;20565;-72
2023/09/03 05:41:47;;;;;;;21.58;14.90;;;;;;;;;;5025662;28;20409;-72
2023/09/03 05:44:13;;;;;;;21.50;14.88;;;;;;;;;;5029255;28;20214;-72
2023/09/03 05:46:39;;;;;;;22.05;14.95;;;;;;;;;;5017049;28;20238;-72
2023/09/03 05:49:04;;;;;;;21.58;14.85;;;;;;;;;;5017264;28;20217;-72
2023/09/03 05:51:30;;;;;;;21.00;14.05;;;;;;;;;;5029887;28;20186;-73
2023/09/03 05:53:55;;;;;;;23.13;14.23;;;;;;;;;;5020214;28;20213;-72
2023/09/03 05:56:20;;;;;;;20.30;13.82;;;;;;;;;;5027476;28;20276;-72
2023/09/03 05:58:46;;;;;;;22.13;15.70;;;;;;;;;;5018024;28;20187;-72
2023/09/03 06:01:11;;;;;;;22.95;15.55;;;;;;;;;;5022668;28;20194;-72
2023/09/03 06:03:39;;;;;;;21.40;15.85;;;;;;;;;;5024621;28;20186;-72
2023/09/03 06:06:05;;;;;;;22.77;16.90;;;;;;;;;;5030028;28;20217;-72
2023/09/03 06:08:32;;;;;;;23.45;16.45;;;;;;;;;;5027293;28;20294;-71
2023/09/03 06:10:58;;;;;;;21.25;16.35;;;;;;;;;;5031382;28;20201;-73
2023/09/03 06:13:24;;;;;;;21.23;16.67;;;;;;;;;;5030396;28;20190;-72
2023/09/03 06:15:50;;;;;;;18.38;15.77;;;;;;;;;;5004397;28;20196;-71
2023/09/03 06:18:16;;;;;;;19.33;15.93;;;;;;;;;;5029496;28;20620;-71
2023/09/03 06:20:41;;;;;;;21.35;15.55;;;;;;;;;;5027986;28;20216;-72
2023/09/03 06:23:07;;;;;;;18.73;15.02;;;;;;;;;;5024779;28;20190;-72
2023/09/03 06:25:32;;;;;;;21.85;15.48;;;;;;;;;;5031398;28;20194;-73
2023/09/03 06:27:58;;;;;;;21.65;16.50;;;;;;;;;;5029302;28;20214;-73
2023/09/03 06:30:23;;;;;;;23.73;17.08;;;;;;;;;;5023486;28;20186;-72
2023/09/03 06:32:48;;;;;;;22.08;18.15;;;;;;;;;;5024773;28;20251;-73
2023/09/03 06:35:14;;;;;;;22.70;17.70;;;;;;;;;;5032122;28;20217;-72
2023/09/03 06:37:39;;;;;;;22.00;16.77;;;;;;;;;;5026885;28;20201;-72
2023/09/03 06:40:07;;;;;;;22.35;16.63;;;;;;;;;;5013631;28;20178;-72
2023/09/03 06:42:32;;;;;;;23.73;17.27;;;;;;;;;;5029551;28;20186;-72
2023/09/03 06:44:57;;;;;;;26.58;17.83;;;;;;;;;;5025919;28;20628;-72
2023/09/03 06:47:23;;;;;;;24.08;16.70;;;;;;;;;;5032554;28;20268;-73
2023/09/03 06:49:51;;;;;;;21.42;17.25;;;;;;;;;;5031426;28;20271;-72
2023/09/03 06:52:18;;;;;;;19.40;16.38;;;;;;;;;;5027996;28;20191;-73
2023/09/03 06:54:43;;;;;;;25.63;16.95;;;;;;;;;;5023385;28;20259;-72
2023/09/03 06:57:09;;;;;;;20.95;16.98;;;;;;;;;;5012027;28;20202;-72
2023/09/03 06:59:34;;;;;;;20.45;17.20;;;;;;;;;;5026975;28;20182;-72
2023/09/03 07:02:00;;;;;;;19.73;16.90;;;;;;;;;;5028083;28;20205;-73
2023/09/03 07:04:25;;;;;;;23.27;16.73;;;;;;;;;;5022687;28;20207;-74
2023/09/03 07:06:51;;;;;;;19.77;16.73;;;;;;;;;;5019343;28;20579;-72
2023/09/03 07:09:17;;;;;;;19.75;16.30;;;;;;;;;;5041719;28;20686;-72
2023/09/03 07:11:42;;;;;;;22.30;15.70;;;;;;;;;;5028836;28;20198;-72
2023/09/03 07:14:08;;;;;;;18.77;14.23;;;;;;;;;;5027332;28;20276;-72
2023/09/03 07:16:34;;;;;;;16.23;13.88;;;;;;;;;;5024854;28;20623;-72
2023/09/03 07:19:00;;;;;;;19.65;15.32;;;;;;;;;;4319946;28;10000826;-72
2023/09/03 07:21:25;;;;;;;17.50;14.85;;;;;;;;;;5027945;28;20273;-72
2023/09/03 07:23:51;;;;;;;20.38;15.73;;;;;;;;;;5025211;28;20665;-72
2023/09/03 07:26:17;;;;;;;18.27;14.75;;;;;;;;;;5024957;28;20216;-72
2023/09/03 07:28:42;;;;;;;19.85;14.45;;;;;;;;;;5023706;28;20670;-72
2023/09/03 07:31:08;;;;;;;18.08;14.82;;;;;;;;;;5027095;28;20197;-72
2023/09/03 07:33:34;;;;;;;18.05;14.48;;;;;;;;;;5024232;28;20217;-72
2023/09/03 07:35:59;;;;;;;20.02;14.75;;;;;;;;;;5024980;28;20201;-72
2023/09/03 07:38:27;;;;;;;17.55;13.15;;;;;;;;;;5026768;28;20261;-72
2023/09/03 07:40:52;;;;;;;17.13;13.77;;;;;;;;;;5023619;28;20592;-72
2023/09/03 07:43:18;;;;;;;16.35;13.85;;;;;;;;;;5023422;28;20225;-72
2023/09/03 07:45:44;;;;;;;17.00;14.70;;;;;;;;;;5023323;28;20639;-72
2023/09/03 07:48:10;;;;;;;18.65;13.43;;;;;;;;;;5020702;28;20226;-73
2023/09/03 07:50:38;;;;;;;18.10;14.45;;;;;;;;;;5027156;28;20217;-73
2023/09/03 07:53:03;;;;;;;21.98;15.77;;;;;;;;;;5025985;28;20736;-73
2023/09/03 07:55:29;;;;;;;17.00;13.23;;;;;;;;;;5019148;28;20194;-72
2023/09/03 07:57:54;;;;;;;16.63;13.23;;;;;;;;;;5023823;28;20199;-73
2023/09/03 08:00:20;;;;;;;16.67;14.27;;;;;;;;;;5018470;28;20194;-73
2023/09/03 08:02:45;;;;;;;16.38;12.68;;;;;;;;;;5020396;28;20213;-73
2023/09/03 08:05:11;;;;;;;15.13;12.65;;;;;;;;;;5015355;28;20193;-73
2023/09/03 08:07:37;;;;;;;17.65;13.45;;;;;;;;;;5026096;28;20622;-72
2023/09/03 08:10:03;;;;;;;18.30;14.02;;;;;;;;;;5006714;28;20218;-73
2023/09/03 08:12:28;;;;;;;16.35;14.00;;;;;;;;;;5025909;28;20554;-73
2023/09/03 08:14:53;;;;;;;17.45;14.55;;;;;;;;;;5019313;28;20281;-72
2023/09/03 08:17:20;;;;;;;16.27;14.57;;;;;;;;;;5027021;28;20581;-72
2023/09/03 08:19:47;;;;;;;19.70;15.45;;;;;;;;;;5019995;28;20601;-72
2023/09/03 08:22:12;;;;;;;18.30;15.75;;;;;;;;;;5008201;28;20649;-72
2023/09/03 08:24:37;;;;;;;19.63;16.05;;;;;;;;;;5005859;28;20194;-73
2023/09/03 08:27:03;;;;;;;14.68;12.63;;;;;;;;;;5025031;28;20265;-73
2023/09/03 08:29:28;;;;;;;14.98;12.50;;;;;;;;;;5020626;28;20230;-73
2023/09/03 08:31:54;;;;;;;12.15;10.52;;;;;;;;;;5026950;28;20198;-73
2023/09/03 08:34:19;;;;;;;13.38;11.10;;;;;;;;;;5018654;28;20275;-73
2023/09/03 08:36:44;;;;;;;13.10;10.13;;;;;;;;;;5017414;28;20567;-72
2023/09/03 08:39:10;;;;;;;12.43;10.05;;;;;;;;;;5023246;28;20194;-73
2023/09/03 08:41:38;;;;;;;11.57;9.80;;;;;;;;;;5023898;28;20833;-72
2023/09/03 08:44:07;;;;;;;10.82;8.00;;;;;;;;;;5028409;28;20285;-72
2023/09/03 08:46:36;;;;;;;6.65;5.50;;;;;;;;;;5027130;28;20237;-73
2023/09/03 08:49:03;;;;;;;10.40;6.60;;;;;;;;;;5022898;28;20218;-72
2023/09/03 08:51:29;;;;;;;6.57;5.70;;;;;;;;;;5024179;28;20213;-73
2023/09/03 08:53:56;;;;;;;8.07;6.28;;;;;;;;;;5027785;28;20182;-72
2023/09/03 08:56:22;;;;;;;6.50;5.43;;;;;;;;;;5023519;28;20190;-73
2023/09/03 08:58:48;;;;;;;5.50;4.65;;;;;;;;;;5019868;28;20190;-73
2023/09/03 09:01:15;;;;;;;6.95;4.57;;;;;;;;;;5011398;28;20190;-73
2023/09/03 09:03:42;;;;;;;5.68;4.63;;;;;;;;;;5022024;28;20286;-73
2023/09/03 09:06:07;;;;;;;6.05;4.60;;;;;;;;;;5025053;28;20194;-73
2023/09/03 09:08:34;;;;;;;8.40;5.40;;;;;;;;;;5032534;28;20773;-73
2023/09/03 09:11:06;;;;;;;7.35;6.18;;;;;;;;;;5020525;28;20619;-73
2023/09/03 09:13:35;;;;;;;6.32;5.25;;;;;;;;;;5028440;28;20186;-73
2023/09/03 09:16:00;;;;;;;5.72;4.28;;;;;;;;;;5022523;28;20197;-71
2023/09/03 09:18:26;;;;;;;6.88;4.40;;;;;;;;;;5024985;28;20210;-73
2023/09/03 09:20:56;;;;;;;6.22;4.53;;;;;;;;;;5027532;28;20194;-74
2023/09/03 09:23:22;;;;;;;7.30;4.38;;;;;;;;;;5019453;28;20182;-72
2023/09/03 09:25:48;;;;;;;4.47;4.07;;;;;;;;;;5024962;28;20696;-73
2023/09/03 09:28:13;;;;;;;4.95;4.43;;;;;;;;;;5029911;28;20231;-73
2023/09/03 09:30:59;;;;;;;6.57;3.72;;;;;;;;;;5027428;28;20674;-73
2023/09/03 09:33:25;;;;;;;5.35;3.90;;;;;;;;;;5014535;28;20203;-73
2023/09/03 09:35:51;;;;;;;5.15;3.85;;;;;;;;;;4999542;28;20190;-73
2023/09/03 09:38:17;;;;;;;7.40;3.53;;;;;;;;;;5024430;28;20609;-74
2023/09/03 09:40:43;;;;;;;6.25;4.28;;;;;;;;;;5020036;28;20545;-73
2023/09/03 09:43:09;;;;;;;5.75;4.20;;;;;;;;;;5024595;28;20268;-74
2023/09/03 09:45:52;;;;;;;5.35;4.20;;;;;;;;;;5013135;28;20230;-74
2023/09/03 09:48:18;;;;;;;6.90;4.10;;;;;;;;;;5023575;28;21618;-74
2023/09/03 09:50:46;;;;;;;5.75;3.67;;;;;;;;;;5010462;28;20209;-74
2023/09/03 09:53:23;;;;;;;5.00;3.35;;;;;;;;;;5028370;28;20186;-73
2023/09/03 09:55:59;;;;;;;5.55;3.20;;;;;;;;;;5028384;28;20205;-73
2023/09/03 09:58:37;;;;;;;6.30;2.90;;;;;;;;;;5025067;28;20208;-74
2023/09/03 10:01:03;;;;;;;4.60;2.80;;;;;;;;;;5018639;28;20218;-72
2023/09/03 10:03:45;;;;;;;3.72;2.88;;;;;;;;;;5023513;28;20404;-72
2023/09/03 10:06:15;;;;;;;3.05;2.22;;;;;;;;;;5017401;28;20194;-73
2023/09/03 10:08:41;;;;;;;4.40;2.80;;;;;;;;;;5027003;28;20234;-74
2023/09/03 10:11:07;;;;;;;4.18;2.30;;;;;;;;;;5024226;28;20193;-73
2023/09/03 10:13:32;;;;;;;3.03;2.22;;;;;;;;;;5026568;28;20468;-73
2023/09/03 10:16:04;;;;;;;3.40;2.10;;;;;;;;;;5019057;28;20698;-73
2023/09/03 10:18:31;;;;;;;4.38;2.10;;;;;;;;;;5025960;28;20218;-74
2023/09/03 10:20:59;;;;;;;2.78;1.92;;;;;;;;;;5027951;28;20193;-74
2023/09/03 10:23:28;;;;;;;2.78;1.98;;;;;;;;;;5025068;28;20190;-74
2023/09/03 10:25:54;;;;;;;4.90;1.90;;;;;;;;;;5024385;28;20193;-74
2023/09/03 10:28:23;;;;;;;3.40;2.20;;;;;;;;;;5025127;28;20229;-74
2023/09/03 10:30:52;;;;;;;3.75;2.08;;;;;;;;;;5026560;28;20590;-74
2023/09/03 10:33:17;;;;;;;4.35;1.98;;;;;;;;;;5025832;28;20657;-74
2023/09/03 10:36:10;;;;;;;3.67;2.10;;;;;;;;;;5025664;28;20205;-74
2023/09/03 10:38:36;;;;;;;2.70;1.98;;;;;;;;;;5026691;28;20273;-74
2023/09/03 10:41:23;;;;;;;4.28;2.17;;;;;;;;;;5021437;28;20581;-74
2023/09/03 10:43:51;;;;;;;4.00;2.40;;;;;;;;;;5023549;28;20294;-75
2023/09/03 10:46:16;;;;;;;4.97;2.05;;;;;;;;;;5014496;28;20234;-74
2023/09/03 10:48:51;;;;;;;4.18;1.83;;;;;;;;;;5006812;28;20755;-74
2023/09/03 10:51:37;;;;;;;3.05;2.45;;;;;;;;;;5027873;28;20288;-74
2023/09/03 10:54:20;;;;;;;4.30;1.98;;;;;;;;;;5026827;28;20728;-74
2023/09/03 10:57:04;;;;;;;4.50;2.17;;;;;;;;;;5026401;28;20209;-75
2023/09/03 10:59:57;;;;;;;2.95;2.08;;;;;;;;;;5023088;28;20198;-75
2023/09/03 11:02:27;;;;;;;3.80;2.35;;;;;;;;;;5028472;28;20197;-74
2023/09/03 11:05:12;;;;;;;4.22;2.13;;;;;;;;;;5025562;28;20239;-74
2023/09/03 11:07:40;;;;;;;4.88;2.22;;;;;;;;;;5030189;28;20628;-75
2023/09/03 11:10:20;;;;;;;3.22;2.15;;;;;;;;;;5012719;28;20202;-75
2023/09/03 11:12:47;;;;;;;3.15;2.33;;;;;;;;;;5029569;28;20193;-74
2023/09/03 11:15:17;;;;;;;4.07;2.47;;;;;;;;;;5022382;28;20655;-74
2023/09/03 11:17:49;;;;;;;4.82;2.40;;;;;;;;;;5018696;28;20264;-74
2023/09/03 11:20:41;;;;;;;2.92;1.92;;;;;;;;;;5023121;28;20194;-74
2023/09/03 11:23:09;;;;;;;2.53;1.88;;;;;;;;;;5030178;28;20309;-74
2023/09/03 11:25:37;;;;;;;2.33;1.80;;;;;;;;;;5025939;28;20678;-75
2023/09/03 11:28:04;;;;;;;2.45;1.92;;;;;;;;;;5030786;28;20320;-74
2023/09/03 11:30:30;;;;;;;1.92;1.52;;;;;;;;;;5028267;28;20201;-74
2023/09/03 11:32:56;;;;;;;3.05;1.60;;;;;;;;;;5029139;28;20518;-74
2023/09/03 11:35:22;;;;;;;3.88;1.70;;;;;;;;;;5012503;28;20263;-74
2023/09/03 11:37:49;;;;;;;4.45;1.70;;;;;;;;;;5002746;28;20231;-75
2023/09/03 11:40:16;;;;;;;4.43;2.22;;;;;;;;;;5023826;28;20268;-74
2023/09/03 11:42:48;;;;;;;3.67;2.10;;;;;;;;;;5027733;28;20192;-74
2023/09/03 11:45:14;;;;;;;3.67;1.60;;;;;;;;;;5027397;28;20222;-75
2023/09/03 11:47:45;;;;;;;2.47;1.45;;;;;;;;;;5029990;28;20201;-74
2023/09/03 11:50:14;;;;;;;1.40;1.30;;;;;;;;;;5024690;28;20218;-75
2023/09/03 11:52:58;;;;;;;2.70;1.50;;;;;;;;;;5029070;28;20676;-74
2023/09/03 11:55:26;;;;;;;2.88;1.58;;;;;;;;;;5026710;28;20182;-74
2023/09/03 11:57:54;;;;;;;4.57;1.85;;;;;;;;;;5030635;28;20664;-75
2023/09/03 12:00:20;;;;;;;3.63;1.90;;;;;;;;;;5025368;28;20187;-75
2023/09/03 12:02:46;;;;;;;1.63;1.52;;;;;;;;;;5004894;28;20644;-75
2023/09/03 12:05:12;;;;;;;1.48;1.38;;;;;;;;;;5025722;28;20215;-75
2023/09/03 12:07:38;;;;;;;2.97;1.55;;;;;;;;;;5033100;28;20602;-75
2023/09/03 12:10:03;;;;;;;2.60;1.73;;;;;;;;;;5026404;28;20294;-74
2023/09/03 12:12:29;;;;;;;1.10;1.00;;;;;;;;;;5022527;28;20226;-75
2023/09/03 12:14:54;;;;;;;2.70;1.45;;;;;;;;;;5026385;28;20202;-75
2023/09/03 12:17:27;;;;;;;1.58;1.48;;;;;;;;;;5026035;28;20213;-74
2023/09/03 12:19:52;;;;;;;2.17;1.35;;;;;;;;;;5021782;28;20248;-74
2023/09/03 12:22:19;;;;;;;2.28;1.30;;;;;;;;;;5030305;28;20186;-74
2023/09/03 12:24:48;;;;;;;4.10;1.40;;;;;;;;;;5027382;28;20720;-74
2023/09/03 12:27:13;;;;;;;1.38;1.20;;;;;;;;;;5013078;28;20721;-74
2023/09/03 12:29:40;;;;;;;1.58;1.30;;;;;;;;;;5024206;28;20209;-74
2023/09/03 12:32:13;;;;;;;2.15;1.70;;;;;;;;;;5023425;28;20186;-73
2023/09/03 12:34:40;;;;;;;2.33;1.83;;;;;;;;;;5025524;28;20228;-73
2023/09/03 12:37:07;;;;;;;2.72;1.70;;;;;;;;;;5023346;28;20646;-74
2023/09/03 12:39:34;;;;;;;3.10;1.90;;;;;;;;;;5008680;28;20556;-74
2023/09/03 12:42:00;;;;;;;4.68;2.17;;;;;;;;;;5026219;28;20296;-74
2023/09/03 12:44:27;;;;;;;3.47;2.20;;;;;;;;;;5018527;28;20190;-74
2023/09/03 12:46:53;;;;;;;5.03;2.40;;;;;;;;;;5025509;28;20225;-74
2023/09/03 12:49:18;;;;;;;4.53;2.40;;;;;;;;;;5029035;28;20225;-74
2023/09/03 12:51:44;;;;;;;2.83;2.60;;;;;;;;;;5024611;28;20186;-74
2023/09/03 12:54:09;;;;;;;5.50;2.85;;;;;;;;;;5027656;28;20637;-74
2023/09/03 12:56:35;;;;;;;3.65;2.60;;;;;;;;;;5025875;28;20194;-74
2023/09/03 12:59:04;;;;;;;2.92;2.42;;;;;;;;;;5028371;28;20534;-73
2023/09/03 13:01:35;;;;;;;4.85;2.65;;;;;;;;;;5022779;28;20277;-74
2023/09/03 13:04:01;;;;;;;4.38;2.92;;;;;;;;;;5028297;28;20279;-74
2023/09/03 13:06:26;;;;;;;4.45;2.60;;;;;;;;;;5007701;28;20281;-74
2023/09/03 13:08:51;;;;;;;3.85;2.58;;;;;;;;;;5025405;28;20198;-75
2023/09/03 13:11:18;;;;;;;2.78;2.30;;;;;;;;;;5022736;28;20202;-74
2023/09/03 13:13:49;;;;;;;2.80;1.80;;;;;;;;;;5027183;28;20198;-74
2023/09/03 13:16:17;;;;;;;3.20;2.20;;;;;;;;;;4998522;28;20758;-74
2023/09/03 13:18:45;;;;;;;2.65;1.77;;;;;;;;;;5022663;28;20289;-74
2023/09/03 13:21:11;;;;;;;2.92;2.10;;;;;;;;;;5021126;28;20191;-74
2023/09/03 13:23:36;;;;;;;4.05;2.20;;;;;;;;;;5024582;28;20256;-74
2023/09/03 13:26:02;;;;;;;2.55;1.58;;;;;;;;;;5027704;28;20280;-74
2023/09/03 13:28:27;;;;;;;2.08;1.40;;;;;;;;;;5026052;28;20241;-74
2023/09/03 13:30:53;;;;;;;3.38;1.65;;;;;;;;;;5023302;28;20194;-74
2023/09/03 13:33:18;;;;;;;3.22;1.55;;;;;;;;;;5028610;28;20190;-73
2023/09/03 13:35:50;;;;;;;4.47;1.88;;;;;;;;;;5023404;28;20277;-74
2023/09/03 13:38:16;;;;;;;2.47;1.75;;;;;;;;;;5022498;28;20552;-74
2023/09/03 13:40:41;;;;;;;2.60;1.30;;;;;;;;;;5028023;28;20277;-74
2023/09/03 13:43:07;;;;;;;2.38;0.85;;;;;;;;;;5006357;28;20272;-74
2023/09/03 13:45:32;;;;;;;2.65;0.95;;;;;;;;;;5028140;28;20661;-73
2023/09/03 13:47:57;;;;;;;2.20;0.90;;;;;;;;;;5015534;28;20193;-74
2023/09/03 13:50:25;;;;;;;1.77;1.10;;;;;;;;;;5028999;28;20296;-74
2023/09/03 13:52:50;;;;;;;1.23;1.00;;;;;;;;;;5022316;28;20194;-74
2023/09/03 13:55:15;;;;;;;1.45;0.82;;;;;;;;;;5023613;28;20301;-74
2023/09/03 13:57:41;;;;;;;1.80;1.20;;;;;;;;;;5015141;28;20301;-74
2023/09/03 14:00:07;;;;;;;1.88;1.25;;;;;;;;;;5028005;28;20193;-74
2023/09/03 14:02:32;;;;;;;1.00;0.90;;;;;;;;;;5013245;28;20210;-74
2023/09/03 14:04:58;;;;;;;1.10;0.82;;;;;;;;;;4995971;28;20186;-73
2023/09/03 14:07:24;;;;;;;2.10;1.02;;;;;;;;;;5028474;28;20208;-73
2023/09/03 14:09:53;;;;;;;3.00;1.20;;;;;;;;;;5004592;28;20209;-73
2023/09/03 14:12:19;;;;;;;2.55;1.20;;;;;;;;;;5021893;28;20371;-73
2023/09/03 14:14:44;;;;;;;1.77;1.20;;;;;;;;;;5026675;28;20262;-73
2023/09/03 14:17:09;;;;;;;1.48;1.08;;;;;;;;;;5025155;28;20246;-73
2023/09/03 14:19:35;;;;;;;1.48;1.00;;;;;;;;;;5025901;28;20281;-74
2023/09/03 14:22:03;;;;;;;2.15;1.08;;;;;;;;;;5007232;28;20645;-74
2023/09/03 14:24:28;;;;;;;0.98;0.90;;;;;;;;;;5028939;28;20221;-74
2023/09/03 14:26:54;;;;;;;2.28;1.13;;;;;;;;;;5027808;28;20708;-75